sensor_id;sensor_type;location;lat;lon;timestamp;temperature;humidity
40636;DHT22;26642;55.766;37.828;2024-01-15T00:00:20;5.40;71.40
40636;DHT22;26642;55.766;37.828;2024-01-15T00:02:47;5.40;71.10
40636;DHT22;26642;55.766;37.828;2024-01-15T00:05:13;5.40;71.70
40636;DHT22;26642;55.766;37.828;2024-01-15T00:07:39;5.40;71.60
40636;DHT22;26642;55.766;37.828;2024-01-15T00:10:05;5.40;71.60
40636;DHT22;26642;55.766;37.828;2024-01-15T00:12:31;5.40;71.50
40636;DHT22;26642;55.766;37.828;2024-01-15T00:14:57;5.40;71.30
40636;DHT22;26642;55.766;37.828;2024-01-15T00:17:23;5.40;71.30
40636;DHT22;26642;55.766;37.828;2024-01-15T00:19:49;5.40;71.00
40636;DHT22;26642;55.766;37.828;2024-01-15T00:22:15;5.40;71.20
40636;DHT22;26642;55.766;37.828;2024-01-15T00:24:41;5.40;71.20
40636;DHT22;26642;55.766;37.828;2024-01-15T00:27:07;5.40;71.00
40636;DHT22;26642;55.766;37.828;2024-01-15T00:29:33;5.40;71.00
40636;DHT22;26642;55.766;37.828;2024-01-15T00:32:00;5.40;70.90
40636;DHT22;26642;55.766;37.828;2024-01-15T00:34:26;5.40;70.90
40636;DHT22;26642;55.766;37.828;2024-01-15T00:36:52;5.40;70.90
40636;DHT22;26642;55.766;37.828;2024-01-15T00:39:18;5.40;70.70
40636;DHT22;26642;55.766;37.828;2024-01-15T00:41:44;5.40;70.70
40636;DHT22;26642;55.766;37.828;2024-01-15T00:44:10;5.40;70.50
40636;DHT22;26642;55.766;37.828;2024-01-15T00:46:46;5.40;70.50
40636;DHT22;26642;55.766;37.828;2024-01-15T00:49:13;5.40;70.50
40636;DHT22;26642;55.766;37.828;2024-01-15T00:51:39;5.40;70.40
40636;DHT22;26642;55.766;37.828;2024-01-15T00:54:06;5.40;70.30
40636;DHT22;26642;55.766;37.828;2024-01-15T00:56:32;5.40;70.20
40636;DHT22;26642;55.766;37.828;2024-01-15T00:58:58;5.40;71.00
40636;DHT22;26642;55.766;37.828;2024-01-15T01:01:24;5.40;70.30
40636;DHT22;26642;55.766;37.828;2024-01-15T01:03:50;5.40;70.20
40636;DHT22;26642;55.766;37.828;2024-01-15T01:06:16;5.40;70.20
40636;DHT22;26642;55.766;37.828;2024-01-15T01:08:42;5.40;70.30
40636;DHT22;26642;55.766;37.828;2024-01-15T01:11:11;5.40;70.60
40636;DHT22;26642;55.766;37.828;2024-01-15T01:13:38;5.40;71.10
40636;DHT22;26642;55.766;37.828;2024-01-15T01:16:04;5.40;71.10
40636;DHT22;26642;55.766;37.828;2024-01-15T01:18:30;5.40;71.20
40636;DHT22;26642;55.766;37.828;2024-01-15T01:20:56;5.40;71.70
40636;DHT22;26642;55.766;37.828;2024-01-15T01:23:22;5.50;71.60
40636;DHT22;26642;55.766;37.828;2024-01-15T01:25:48;5.40;71.20
40636;DHT22;26642;55.766;37.828;2024-01-15T01:28:14;5.40;71.20
40636;DHT22;26642;55.766;37.828;2024-01-15T01:30:40;5.40;71.20
40636;DHT22;26642;55.766;37.828;2024-01-15T01:33:06;5.40;71.10
40636;DHT22;26642;55.766;37.828;2024-01-15T01:35:32;5.40;70.90
40636;DHT22;26642;55.766;37.828;2024-01-15T01:37:58;5.50;70.90
40636;DHT22;26642;55.766;37.828;2024-01-15T01:40:24;5.40;70.70
40636;DHT22;26642;55.766;37.828;2024-01-15T01:42:50;5.40;70.60
40636;DHT22;26642;55.766;37.828;2024-01-15T01:45:16;5.50;70.50
40636;DHT22;26642;55.766;37.828;2024-01-15T01:47:42;5.40;70.40
40636;DHT22;26642;55.766;37.828;2024-01-15T01:50:09;5.40;70.30
40636;DHT22;26642;55.766;37.828;2024-01-15T01:52:35;5.40;70.20
40636;DHT22;26642;55.766;37.828;2024-01-15T01:55:02;5.40;70.20
40636;DHT22;26642;55.766;37.828;2024-01-15T01:57:30;5.40;70.10
40636;DHT22;26642;55.766;37.828;2024-01-15T01:59:56;5.40;70.00
40636;DHT22;26642;55.766;37.828;2024-01-15T02:02:24;5.40;70.00
40636;DHT22;26642;55.766;37.828;2024-01-15T02:04:50;5.40;69.90
40636;DHT22;26642;55.766;37.828;2024-01-15T02:07:16;5.40;69.80
40636;DHT22;26642;55.766;37.828;2024-01-15T02:09:44;5.40;69.80
40636;DHT22;26642;55.766;37.828;2024-01-15T02:12:11;5.40;69.80
40636;DHT22;26642;55.766;37.828;2024-01-15T02:14:37;5.40;69.90
40636;DHT22;26642;55.766;37.828;2024-01-15T02:17:03;5.40;70.00
40636;DHT22;26642;55.766;37.828;2024-01-15T02:19:29;5.40;70.00
40636;DHT22;26642;55.766;37.828;2024-01-15T02:21:55;5.40;70.10
40636;DHT22;26642;55.766;37.828;2024-01-15T02:24:21;5.40;70.00
40636;DHT22;26642;55.766;37.828;2024-01-15T02:26:48;5.40;70.70
40636;DHT22;26642;55.766;37.828;2024-01-15T02:29:15;5.40;70.50
40636;DHT22;26642;55.766;37.828;2024-01-15T02:31:41;5.40;70.90
40636;DHT22;26642;55.766;37.828;2024-01-15T02:34:07;5.50;71.00
40636;DHT22;26642;55.766;37.828;2024-01-15T02:36:33;5.40;71.20
40636;DHT22;26642;55.766;37.828;2024-01-15T02:38:59;5.50;71.30
40636;DHT22;26642;55.766;37.828;2024-01-15T02:41:25;5.40;70.90
40636;DHT22;26642;55.766;37.828;2024-01-15T02:43:51;5.50;70.90
40636;DHT22;26642;55.766;37.828;2024-01-15T02:46:17;5.50;70.70
40636;DHT22;26642;55.766;37.828;2024-01-15T02:48:43;5.50;70.70
40636;DHT22;26642;55.766;37.828;2024-01-15T02:51:09;5.40;70.60
40636;DHT22;26642;55.766;37.828;2024-01-15T02:53:36;5.50;70.50
40636;DHT22;26642;55.766;37.828;2024-01-15T02:56:03;5.50;70.50
40636;DHT22;26642;55.766;37.828;2024-01-15T02:58:29;5.50;70.30
40636;DHT22;26642;55.766;37.828;2024-01-15T03:00:55;5.50;70.20
40636;DHT22;26642;55.766;37.828;2024-01-15T03:03:20;5.50;70.10
40636;DHT22;26642;55.766;37.828;2024-01-15T03:05:46;5.50;70.00
40636;DHT22;26642;55.766;37.828;2024-01-15T03:08:13;5.50;69.60
40636;DHT22;26642;55.766;37.828;2024-01-15T03:10:38;5.50;69.60
40636;DHT22;26642;55.766;37.828;2024-01-15T03:13:04;5.50;69.70
40636;DHT22;26642;55.766;37.828;2024-01-15T03:15:30;5.50;69.80
40636;DHT22;26642;55.766;37.828;2024-01-15T03:17:56;5.50;69.80
40636;DHT22;26642;55.766;37.828;2024-01-15T03:20:22;5.50;69.70
40636;DHT22;26642;55.766;37.828;2024-01-15T03:22:48;5.50;69.60
40636;DHT22;26642;55.766;37.828;2024-01-15T03:25:14;5.50;69.70
40636;DHT22;26642;55.766;37.828;2024-01-15T03:27:40;5.50;69.70
40636;DHT22;26642;55.766;37.828;2024-01-15T03:30:07;5.50;69.60
40636;DHT22;26642;55.766;37.828;2024-01-15T03:32:33;5.50;69.60
40636;DHT22;26642;55.766;37.828;2024-01-15T03:34:59;5.50;69.70
40636;DHT22;26642;55.766;37.828;2024-01-15T03:37:26;5.50;69.70
40636;DHT22;26642;55.766;37.828;2024-01-15T03:39:52;5.50;70.00
40636;DHT22;26642;55.766;37.828;2024-01-15T03:42:18;5.50;70.30
40636;DHT22;26642;55.766;37.828;2024-01-15T03:44:44;5.50;70.40
40636;DHT22;26642;55.766;37.828;2024-01-15T03:47:10;5.50;70.60
40636;DHT22;26642;55.766;37.828;2024-01-15T03:49:36;5.50;70.70
40636;DHT22;26642;55.766;37.828;2024-01-15T03:52:02;5.50;70.80
40636;DHT22;26642;55.766;37.828;2024-01-15T03:54:28;5.50;70.60
40636;DHT22;26642;55.766;37.828;2024-01-15T03:56:54;5.50;70.50
40636;DHT22;26642;55.766;37.828;2024-01-15T03:59:20;5.50;70.50
40636;DHT22;26642;55.766;37.828;2024-01-15T04:01:50;5.60;70.50
40636;DHT22;26642;55.766;37.828;2024-01-15T04:04:19;5.60;70.60
40636;DHT22;26642;55.766;37.828;2024-01-15T04:06:45;5.50;70.30
40636;DHT22;26642;55.766;37.828;2024-01-15T04:09:12;5.50;70.20
40636;DHT22;26642;55.766;37.828;2024-01-15T04:11:39;5.60;70.10
40636;DHT22;26642;55.766;37.828;2024-01-15T04:14:05;5.60;70.00
40636;DHT22;26642;55.766;37.828;2024-01-15T04:16:31;5.50;69.90
40636;DHT22;26642;55.766;37.828;2024-01-15T04:18:57;5.60;69.80
40636;DHT22;26642;55.766;37.828;2024-01-15T04:21:24;5.60;69.60
40636;DHT22;26642;55.766;37.828;2024-01-15T04:23:50;5.60;69.50
40636;DHT22;26642;55.766;37.828;2024-01-15T04:26:16;5.50;69.50
40636;DHT22;26642;55.766;37.828;2024-01-15T04:28:42;5.60;69.50
40636;DHT22;26642;55.766;37.828;2024-01-15T04:31:08;5.50;69.50
40636;DHT22;26642;55.766;37.828;2024-01-15T04:33:34;5.50;69.50
40636;DHT22;26642;55.766;37.828;2024-01-15T04:36:04;5.50;69.40
40636;DHT22;26642;55.766;37.828;2024-01-15T04:38:31;5.60;69.40
40636;DHT22;26642;55.766;37.828;2024-01-15T04:40:58;5.50;69.40
40636;DHT22;26642;55.766;37.828;2024-01-15T04:43:24;5.50;69.40
40636;DHT22;26642;55.766;37.828;2024-01-15T04:45:50;5.60;69.60
40636;DHT22;26642;55.766;37.828;2024-01-15T04:48:16;5.50;69.40
40636;DHT22;26642;55.766;37.828;2024-01-15T04:50:42;5.50;69.60
40636;DHT22;26642;55.766;37.828;2024-01-15T04:53:08;5.50;70.00
40636;DHT22;26642;55.766;37.828;2024-01-15T04:55:34;5.60;70.30
40636;DHT22;26642;55.766;37.828;2024-01-15T04:58:00;5.60;71.30
40636;DHT22;26642;55.766;37.828;2024-01-15T05:00:26;5.60;71.20
40636;DHT22;26642;55.766;37.828;2024-01-15T05:02:52;5.60;71.50
40636;DHT22;26642;55.766;37.828;2024-01-15T05:05:18;5.60;72.00
40636;DHT22;26642;55.766;37.828;2024-01-15T05:07:44;5.60;72.10
40636;DHT22;26642;55.766;37.828;2024-01-15T05:10:10;5.70;72.20
40636;DHT22;26642;55.766;37.828;2024-01-15T05:12:36;5.70;72.30
40636;DHT22;26642;55.766;37.828;2024-01-15T05:15:03;5.70;73.20
40636;DHT22;26642;55.766;37.828;2024-01-15T05:17:29;5.70;73.00
40636;DHT22;26642;55.766;37.828;2024-01-15T05:19:55;5.70;72.90
40636;DHT22;26642;55.766;37.828;2024-01-15T05:22:21;5.70;72.70
40636;DHT22;26642;55.766;37.828;2024-01-15T05:24:50;5.60;72.10
40636;DHT22;26642;55.766;37.828;2024-01-15T05:27:16;5.70;72.30
40636;DHT22;26642;55.766;37.828;2024-01-15T05:29:42;5.70;72.10
40636;DHT22;26642;55.766;37.828;2024-01-15T05:32:08;5.70;71.80
40636;DHT22;26642;55.766;37.828;2024-01-15T05:34:34;5.70;71.60
40636;DHT22;26642;55.766;37.828;2024-01-15T05:37:00;5.70;71.50
40636;DHT22;26642;55.766;37.828;2024-01-15T05:39:26;5.70;71.40
40636;DHT22;26642;55.766;37.828;2024-01-15T05:41:52;5.70;71.30
40636;DHT22;26642;55.766;37.828;2024-01-15T05:44:18;5.70;71.50
40636;DHT22;26642;55.766;37.828;2024-01-15T05:46:44;5.80;73.90
40636;DHT22;26642;55.766;37.828;2024-01-15T05:49:10;5.90;75.80
40636;DHT22;26642;55.766;37.828;2024-01-15T05:51:36;6.00;76.10
40636;DHT22;26642;55.766;37.828;2024-01-15T05:54:21;6.10;76.30
40636;DHT22;26642;55.766;37.828;2024-01-15T05:56:47;6.10;76.50
40636;DHT22;26642;55.766;37.828;2024-01-15T05:59:13;6.10;75.30
40636;DHT22;26642;55.766;37.828;2024-01-15T06:01:39;6.10;74.30
40636;DHT22;26642;55.766;37.828;2024-01-15T06:04:05;6.10;73.60
40636;DHT22;26642;55.766;37.828;2024-01-15T06:06:32;6.10;72.90
40636;DHT22;26642;55.766;37.828;2024-01-15T06:08:58;6.10;72.40
40636;DHT22;26642;55.766;37.828;2024-01-15T06:11:31;6.10;72.10
40636;DHT22;26642;55.766;37.828;2024-01-15T06:13:58;6.10;71.60
40636;DHT22;26642;55.766;37.828;2024-01-15T06:16:24;6.10;71.20
40636;DHT22;26642;55.766;37.828;2024-01-15T06:18:50;6.10;71.00
40636;DHT22;26642;55.766;37.828;2024-01-15T06:21:16;6.10;70.60
40636;DHT22;26642;55.766;37.828;2024-01-15T06:23:43;6.10;70.30
40636;DHT22;26642;55.766;37.828;2024-01-15T06:26:11;6.10;70.20
40636;DHT22;26642;55.766;37.828;2024-01-15T06:28:37;6.10;70.00
40636;DHT22;26642;55.766;37.828;2024-01-15T06:31:03;6.10;70.10
40636;DHT22;26642;55.766;37.828;2024-01-15T06:33:29;6.10;70.00
40636;DHT22;26642;55.766;37.828;2024-01-15T06:35:55;6.10;69.70
40636;DHT22;26642;55.766;37.828;2024-01-15T06:38:22;6.10;69.70
40636;DHT22;26642;55.766;37.828;2024-01-15T06:40:49;6.10;69.50
40636;DHT22;26642;55.766;37.828;2024-01-15T06:43:15;6.10;69.60
40636;DHT22;26642;55.766;37.828;2024-01-15T06:45:41;6.10;69.60
40636;DHT22;26642;55.766;37.828;2024-01-15T06:48:07;6.10;69.40
40636;DHT22;26642;55.766;37.828;2024-01-15T06:50:34;6.10;69.20
40636;DHT22;26642;55.766;37.828;2024-01-15T06:53:00;6.10;69.20
40636;DHT22;26642;55.766;37.828;2024-01-15T06:55:26;6.10;69.20
40636;DHT22;26642;55.766;37.828;2024-01-15T06:57:52;6.00;69.30
40636;DHT22;26642;55.766;37.828;2024-01-15T07:00:18;6.00;69.20
40636;DHT22;26642;55.766;37.828;2024-01-15T07:02:45;6.00;69.20
40636;DHT22;26642;55.766;37.828;2024-01-15T07:05:12;6.00;69.10
40636;DHT22;26642;55.766;37.828;2024-01-15T07:07:38;6.00;69.10
40636;DHT22;26642;55.766;37.828;2024-01-15T07:10:05;6.00;69.10
40636;DHT22;26642;55.766;37.828;2024-01-15T07:12:31;6.00;69.00
40636;DHT22;26642;55.766;37.828;2024-01-15T07:14:57;6.00;69.10
40636;DHT22;26642;55.766;37.828;2024-01-15T07:17:23;6.00;69.30
40636;DHT22;26642;55.766;37.828;2024-01-15T07:19:49;6.00;69.20
40636;DHT22;26642;55.766;37.828;2024-01-15T07:22:15;6.00;69.20
40636;DHT22;26642;55.766;37.828;2024-01-15T07:24:43;6.10;69.30
40636;DHT22;26642;55.766;37.828;2024-01-15T07:27:09;6.10;69.40
40636;DHT22;26642;55.766;37.828;2024-01-15T07:29:36;6.10;69.10
40636;DHT22;26642;55.766;37.828;2024-01-15T07:32:03;6.10;69.20
40636;DHT22;26642;55.766;37.828;2024-01-15T07:37:15;6.10;69.10
40636;DHT22;26642;55.766;37.828;2024-01-15T07:39:41;6.10;69.30
40636;DHT22;26642;55.766;37.828;2024-01-15T07:42:07;6.10;69.10
40636;DHT22;26642;55.766;37.828;2024-01-15T07:44:33;6.10;68.90
40636;DHT22;26642;55.766;37.828;2024-01-15T07:46:59;6.20;69.00
40636;DHT22;26642;55.766;37.828;2024-01-15T07:49:25;6.10;69.10
40636;DHT22;26642;55.766;37.828;2024-01-15T07:51:51;6.10;69.00
40636;DHT22;26642;55.766;37.828;2024-01-15T07:54:17;6.10;69.10
40636;DHT22;26642;55.766;37.828;2024-01-15T07:57:02;6.10;69.00
40636;DHT22;26642;55.766;37.828;2024-01-15T07:59:31;6.10;68.90
40636;DHT22;26642;55.766;37.828;2024-01-15T08:01:58;6.10;69.00
40636;DHT22;26642;55.766;37.828;2024-01-15T08:04:25;6.20;69.00
40636;DHT22;26642;55.766;37.828;2024-01-15T08:06:51;6.10;68.80
40636;DHT22;26642;55.766;37.828;2024-01-15T08:09:17;6.10;68.90
40636;DHT22;26642;55.766;37.828;2024-01-15T08:11:43;6.10;68.80
40636;DHT22;26642;55.766;37.828;2024-01-15T08:14:10;6.10;68.90
40636;DHT22;26642;55.766;37.828;2024-01-15T08:16:36;6.10;68.90
40636;DHT22;26642;55.766;37.828;2024-01-15T08:19:03;6.10;68.90
40636;DHT22;26642;55.766;37.828;2024-01-15T08:21:29;6.10;68.90
40636;DHT22;26642;55.766;37.828;2024-01-15T08:24:02;6.10;68.90
40636;DHT22;26642;55.766;37.828;2024-01-15T08:26:29;6.10;68.90
40636;DHT22;26642;55.766;37.828;2024-01-15T08:28:55;6.10;69.10
40636;DHT22;26642;55.766;37.828;2024-01-15T08:31:21;6.10;69.10
40636;DHT22;26642;55.766;37.828;2024-01-15T08:33:47;6.20;69.50
40636;DHT22;26642;55.766;37.828;2024-01-15T08:36:14;6.20;69.40
40636;DHT22;26642;55.766;37.828;2024-01-15T08:38:40;6.20;69.20
40636;DHT22;26642;55.766;37.828;2024-01-15T08:41:06;6.20;69.10
40636;DHT22;26642;55.766;37.828;2024-01-15T08:43:34;6.20;69.30
40636;DHT22;26642;55.766;37.828;2024-01-15T08:46:00;6.20;69.30
40636;DHT22;26642;55.766;37.828;2024-01-15T08:48:26;6.20;69.30
40636;DHT22;26642;55.766;37.828;2024-01-15T08:50:55;6.40;74.30
40636;DHT22;26642;55.766;37.828;2024-01-15T08:53:23;6.60;78.30
40636;DHT22;26642;55.766;37.828;2024-01-15T08:55:49;6.80;78.50
40636;DHT22;26642;55.766;37.828;2024-01-15T08:58:15;7.10;78.90
40636;DHT22;26642;55.766;37.828;2024-01-15T09:00:42;7.20;78.70
40636;DHT22;26642;55.766;37.828;2024-01-15T09:03:08;7.20;74.80
40636;DHT22;26642;55.766;37.828;2024-01-15T09:05:34;7.20;73.20
40636;DHT22;26642;55.766;37.828;2024-01-15T09:08:00;7.10;72.10
40636;DHT22;26642;55.766;37.828;2024-01-15T09:10:26;7.10;71.50
40636;DHT22;26642;55.766;37.828;2024-01-15T09:12:52;7.10;71.00
40636;DHT22;26642;55.766;37.828;2024-01-15T09:15:18;7.10;70.80
40636;DHT22;26642;55.766;37.828;2024-01-15T09:17:45;7.00;70.40
40636;DHT22;26642;55.766;37.828;2024-01-15T09:20:11;7.00;70.00
40636;DHT22;26642;55.766;37.828;2024-01-15T09:22:41;7.00;69.90
40636;DHT22;26642;55.766;37.828;2024-01-15T09:25:08;7.00;70.70
40636;DHT22;26642;55.766;37.828;2024-01-15T09:27:37;7.00;69.90
40636;DHT22;26642;55.766;37.828;2024-01-15T09:30:04;7.00;70.00
40636;DHT22;26642;55.766;37.828;2024-01-15T09:32:31;7.00;69.80
40636;DHT22;26642;55.766;37.828;2024-01-15T09:34:58;7.00;70.00
40636;DHT22;26642;55.766;37.828;2024-01-15T09:37:25;6.90;69.90
40636;DHT22;26642;55.766;37.828;2024-01-15T09:39:51;6.90;70.30
40636;DHT22;26642;55.766;37.828;2024-01-15T09:42:18;6.90;70.40
40636;DHT22;26642;55.766;37.828;2024-01-15T09:44:45;7.00;70.90
40636;DHT22;26642;55.766;37.828;2024-01-15T09:47:12;7.00;71.10
40636;DHT22;26642;55.766;37.828;2024-01-15T09:49:38;7.00;70.50
40636;DHT22;26642;55.766;37.828;2024-01-15T09:52:07;6.90;71.00
40636;DHT22;26642;55.766;37.828;2024-01-15T09:54:33;7.00;71.10
40636;DHT22;26642;55.766;37.828;2024-01-15T09:57:00;7.00;71.10
40636;DHT22;26642;55.766;37.828;2024-01-15T09:59:27;6.90;71.10
40636;DHT22;26642;55.766;37.828;2024-01-15T10:01:55;6.90;70.80
40636;DHT22;26642;55.766;37.828;2024-01-15T10:04:22;6.90;70.70
40636;DHT22;26642;55.766;37.828;2024-01-15T10:06:51;6.90;70.80
40636;DHT22;26642;55.766;37.828;2024-01-15T10:09:17;7.00;70.90
40636;DHT22;26642;55.766;37.828;2024-01-15T10:11:44;6.90;70.80
40636;DHT22;26642;55.766;37.828;2024-01-15T10:14:11;6.90;70.70
40636;DHT22;26642;55.766;37.828;2024-01-15T10:16:41;6.90;70.80
40636;DHT22;26642;55.766;37.828;2024-01-15T10:19:08;6.90;70.80
40636;DHT22;26642;55.766;37.828;2024-01-15T10:21:35;6.90;70.60
40636;DHT22;26642;55.766;37.828;2024-01-15T10:24:02;6.90;70.60
40636;DHT22;26642;55.766;37.828;2024-01-15T10:26:29;6.90;70.90
40636;DHT22;26642;55.766;37.828;2024-01-15T10:28:55;6.90;70.80
40636;DHT22;26642;55.766;37.828;2024-01-15T10:31:21;6.90;71.20
40636;DHT22;26642;55.766;37.828;2024-01-15T10:36:35;6.90;70.90
40636;DHT22;26642;55.766;37.828;2024-01-15T10:39:01;6.80;71.00
40636;DHT22;26642;55.766;37.828;2024-01-15T10:41:28;6.80;71.20
40636;DHT22;26642;55.766;37.828;2024-01-15T10:43:54;6.90;71.40
40636;DHT22;26642;55.766;37.828;2024-01-15T10:46:21;6.90;71.40
40636;DHT22;26642;55.766;37.828;2024-01-15T10:48:47;6.80;72.00
40636;DHT22;26642;55.766;37.828;2024-01-15T10:51:13;6.80;72.50
40636;DHT22;26642;55.766;37.828;2024-01-15T10:53:41;6.90;72.70
40636;DHT22;26642;55.766;37.828;2024-01-15T10:56:10;6.90;73.30
40636;DHT22;26642;55.766;37.828;2024-01-15T10:58:39;6.90;73.20
40636;DHT22;26642;55.766;37.828;2024-01-15T11:01:06;6.90;73.00
40636;DHT22;26642;55.766;37.828;2024-01-15T11:03:32;6.90;73.00
40636;DHT22;26642;55.766;37.828;2024-01-15T11:05:59;6.90;73.10
40636;DHT22;26642;55.766;37.828;2024-01-15T11:08:25;6.90;72.90
40636;DHT22;26642;55.766;37.828;2024-01-15T11:10:52;6.90;72.80
40636;DHT22;26642;55.766;37.828;2024-01-15T11:13:22;6.90;72.70
40636;DHT22;26642;55.766;37.828;2024-01-15T11:16:07;6.90;73.10
40636;DHT22;26642;55.766;37.828;2024-01-15T11:21:25;6.90;72.50
40636;DHT22;26642;55.766;37.828;2024-01-15T11:23:56;6.90;72.10
40636;DHT22;26642;55.766;37.828;2024-01-15T11:26:44;6.80;72.10
40636;DHT22;26642;55.766;37.828;2024-01-15T11:31:58;6.90;72.00
40636;DHT22;26642;55.766;37.828;2024-01-15T11:35:00;6.80;71.90
40636;DHT22;26642;55.766;37.828;2024-01-15T11:42:59;6.80;71.90
40636;DHT22;26642;55.766;37.828;2024-01-15T11:45:26;6.90;71.90
40636;DHT22;26642;55.766;37.828;2024-01-15T11:48:15;6.80;71.40
40636;DHT22;26642;55.766;37.828;2024-01-15T11:50:49;6.80;71.50
40636;DHT22;26642;55.766;37.828;2024-01-15T11:54:02;6.80;71.70
40636;DHT22;26642;55.766;37.828;2024-01-15T11:56:08;6.80;72.50
40636;DHT22;26642;55.766;37.828;2024-01-15T11:58:37;6.90;72.50
40636;DHT22;26642;55.766;37.828;2024-01-15T12:01:04;6.90;72.90
40636;DHT22;26642;55.766;37.828;2024-01-15T12:03:32;6.90;73.30
40636;DHT22;26642;55.766;37.828;2024-01-15T12:05:59;6.90;72.60
40636;DHT22;26642;55.766;37.828;2024-01-15T12:08:25;6.90;72.80
40636;DHT22;26642;55.766;37.828;2024-01-15T12:10:53;6.90;72.50
40636;DHT22;26642;55.766;37.828;2024-01-15T12:13:20;6.90;72.70
40636;DHT22;26642;55.766;37.828;2024-01-15T12:15:47;6.90;72.40
40636;DHT22;26642;55.766;37.828;2024-01-15T12:18:16;6.90;72.30
40636;DHT22;26642;55.766;37.828;2024-01-15T12:20:44;6.90;72.20
40636;DHT22;26642;55.766;37.828;2024-01-15T12:23:12;6.90;72.30
40636;DHT22;26642;55.766;37.828;2024-01-15T12:25:39;6.90;72.00
40636;DHT22;26642;55.766;37.828;2024-01-15T12:28:06;6.90;71.90
40636;DHT22;26642;55.766;37.828;2024-01-15T12:30:34;6.90;71.60
40636;DHT22;26642;55.766;37.828;2024-01-15T12:33:05;6.90;71.40
40636;DHT22;26642;55.766;37.828;2024-01-15T12:35:33;6.90;71.20
40636;DHT22;26642;55.766;37.828;2024-01-15T12:38:00;6.90;71.80
40636;DHT22;26642;55.766;37.828;2024-01-15T12:40:31;6.90;71.40
40636;DHT22;26642;55.766;37.828;2024-01-15T12:42:57;6.90;71.20
40636;DHT22;26642;55.766;37.828;2024-01-15T12:45:24;6.90;71.40
40636;DHT22;26642;55.766;37.828;2024-01-15T12:47:50;6.90;71.30
40636;DHT22;26642;55.766;37.828;2024-01-15T12:50:17;6.90;71.30
40636;DHT22;26642;55.766;37.828;2024-01-15T12:52:43;6.90;71.40
40636;DHT22;26642;55.766;37.828;2024-01-15T12:55:10;6.90;71.40
40636;DHT22;26642;55.766;37.828;2024-01-15T12:57:36;6.90;71.70
40636;DHT22;26642;55.766;37.828;2024-01-15T13:00:03;6.90;71.50
40636;DHT22;26642;55.766;37.828;2024-01-15T13:02:37;6.90;71.60
40636;DHT22;26642;55.766;37.828;2024-01-15T13:05:04;6.90;72.50
40636;DHT22;26642;55.766;37.828;2024-01-15T13:07:30;6.90;72.80
40636;DHT22;26642;55.766;37.828;2024-01-15T13:09:56;6.90;73.10
40636;DHT22;26642;55.766;37.828;2024-01-15T13:12:22;6.90;73.30
40636;DHT22;26642;55.766;37.828;2024-01-15T13:14:48;6.90;73.00
40636;DHT22;26642;55.766;37.828;2024-01-15T13:17:14;6.90;72.70
40636;DHT22;26642;55.766;37.828;2024-01-15T13:19:40;6.90;72.70
40636;DHT22;26642;55.766;37.828;2024-01-15T13:22:06;6.90;72.90
40636;DHT22;26642;55.766;37.828;2024-01-15T13:24:33;6.90;72.70
40636;DHT22;26642;55.766;37.828;2024-01-15T13:26:59;6.90;72.60
40636;DHT22;26642;55.766;37.828;2024-01-15T13:29:26;6.90;72.90
40636;DHT22;26642;55.766;37.828;2024-01-15T13:31:52;6.90;72.70
40636;DHT22;26642;55.766;37.828;2024-01-15T13:34:18;6.90;72.70
40636;DHT22;26642;55.766;37.828;2024-01-15T13:36:44;6.90;72.70
40636;DHT22;26642;55.766;37.828;2024-01-15T13:39:10;6.90;72.50
40636;DHT22;26642;55.766;37.828;2024-01-15T13:41:36;6.90;72.50
40636;DHT22;26642;55.766;37.828;2024-01-15T13:44:02;6.90;72.30
40636;DHT22;26642;55.766;37.828;2024-01-15T13:46:29;6.90;72.10
40636;DHT22;26642;55.766;37.828;2024-01-15T13:48:55;6.90;72.10
40636;DHT22;26642;55.766;37.828;2024-01-15T13:51:24;6.90;72.50
40636;DHT22;26642;55.766;37.828;2024-01-15T13:53:51;6.90;72.50
40636;DHT22;26642;55.766;37.828;2024-01-15T13:56:17;6.90;72.70
40636;DHT22;26642;55.766;37.828;2024-01-15T13:58:43;6.90;72.50
40636;DHT22;26642;55.766;37.828;2024-01-15T14:01:09;6.90;72.70
40636;DHT22;26642;55.766;37.828;2024-01-15T14:03:36;6.90;72.70
40636;DHT22;26642;55.766;37.828;2024-01-15T14:06:02;6.90;72.80
40636;DHT22;26642;55.766;37.828;2024-01-15T14:08:37;6.90;72.50
40636;DHT22;26642;55.766;37.828;2024-01-15T14:11:04;6.90;72.80
40636;DHT22;26642;55.766;37.828;2024-01-15T14:13:32;6.90;73.10
40636;DHT22;26642;55.766;37.828;2024-01-15T14:15:58;6.90;73.30
40636;DHT22;26642;55.766;37.828;2024-01-15T14:18:26;6.90;73.30
40636;DHT22;26642;55.766;37.828;2024-01-15T14:20:52;6.90;73.70
40636;DHT22;26642;55.766;37.828;2024-01-15T14:23:20;7.00;73.90
40636;DHT22;26642;55.766;37.828;2024-01-15T14:25:46;7.00;73.80
40636;DHT22;26642;55.766;37.828;2024-01-15T14:28:12;7.00;73.80
40636;DHT22;26642;55.766;37.828;2024-01-15T14:30:38;7.00;74.00
40636;DHT22;26642;55.766;37.828;2024-01-15T14:33:04;7.00;73.90
40636;DHT22;26642;55.766;37.828;2024-01-15T14:35:30;7.00;73.40
40636;DHT22;26642;55.766;37.828;2024-01-15T14:37:56;6.90;73.10
40636;DHT22;26642;55.766;37.828;2024-01-15T14:40:25;7.00;72.70
40636;DHT22;26642;55.766;37.828;2024-01-15T14:42:51;7.00;72.70
40636;DHT22;26642;55.766;37.828;2024-01-15T14:45:17;6.90;72.50
40636;DHT22;26642;55.766;37.828;2024-01-15T14:47:43;6.90;73.30
40636;DHT22;26642;55.766;37.828;2024-01-15T14:50:10;6.90;72.90
40636;DHT22;26642;55.766;37.828;2024-01-15T14:52:38;6.90;72.50
40636;DHT22;26642;55.766;37.828;2024-01-15T14:55:05;6.90;72.40
40636;DHT22;26642;55.766;37.828;2024-01-15T14:57:32;6.90;72.30
40636;DHT22;26642;55.766;37.828;2024-01-15T14:59:58;6.90;72.30
40636;DHT22;26642;55.766;37.828;2024-01-15T15:02:24;6.90;72.00
40636;DHT22;26642;55.766;37.828;2024-01-15T15:04:54;6.90;72.50
40636;DHT22;26642;55.766;37.828;2024-01-15T15:07:23;6.90;72.40
40636;DHT22;26642;55.766;37.828;2024-01-15T15:09:49;6.90;73.30
40636;DHT22;26642;55.766;37.828;2024-01-15T15:12:17;6.90;72.40
40636;DHT22;26642;55.766;37.828;2024-01-15T15:14:43;6.90;72.40
40636;DHT22;26642;55.766;37.828;2024-01-15T15:17:09;6.90;72.90
40636;DHT22;26642;55.766;37.828;2024-01-15T15:19:35;6.90;73.10
40636;DHT22;26642;55.766;37.828;2024-01-15T15:22:02;6.90;73.50
40636;DHT22;26642;55.766;37.828;2024-01-15T15:24:28;6.90;73.80
40636;DHT22;26642;55.766;37.828;2024-01-15T15:26:54;6.90;74.10
40636;DHT22;26642;55.766;37.828;2024-01-15T15:29:20;6.90;74.00
40636;DHT22;26642;55.766;37.828;2024-01-15T15:31:46;6.90;73.90
40636;DHT22;26642;55.766;37.828;2024-01-15T15:34:14;6.90;74.10
40636;DHT22;26642;55.766;37.828;2024-01-15T15:36:41;6.90;73.40
40636;DHT22;26642;55.766;37.828;2024-01-15T15:39:07;6.90;73.60
40636;DHT22;26642;55.766;37.828;2024-01-15T15:41:33;6.90;73.50
40636;DHT22;26642;55.766;37.828;2024-01-15T15:43:59;6.90;73.20